Time,TemperatureF,DewpointF,PressureIn,WindDirection,WindDirectionDegrees,WindSpeedMPH,WindSpeedGustMPH,Humidity,HourlyPrecipIn,Conditions,Clouds,dailyrainin,SoftwareType,DateUTC
2013-06-29 11:02:00,70.5,46.4,17.73,South,183,4.0,8.0,42,0.00,,,0.00,meteohub,2013-06-29 18:02:00,
2013-06-29 11:22:00,70.3,45.5,17.73,West,260,4.0,9.0,41,0.00,,,0.00,meteohub,2013-06-29 18:22:00,
2013-06-29 11:42:00,70.9,44.8,17.73,WSW,252,6.0,9.0,39,0.00,,,0.00,meteohub,2013-06-29 18:42:00,
2013-06-29 12:02:00,71.4,45.1,17.73,SW,229,6.0,9.0,39,0.00,,,0.00,meteohub,2013-06-29 19:02:00,
2013-06-29 12:22:00,71.8,44.8,17.73,WSW,244,8.0,9.0,38,0.00,,,0.00,meteohub,2013-06-29 19:22:00,
2013-06-29 12:42:00,71.4,43.7,17.73,SW,229,8.0,10.0,37,0.00,,,0.00,meteohub,2013-06-29 19:42:00,
2013-06-29 13:02:00,71.4,44.4,17.73,SW,221,11.0,11.0,38,0.00,,,0.00,meteohub,2013-06-29 20:02:00,
2013-06-29 13:22:00,72.1,44.4,17.73,WSW,244,9.0,11.0,37,0.00,,,0.00,meteohub,2013-06-29 20:22:00,
2013-06-29 13:42:00,70.7,45.1,17.73,SW,223,9.0,13.0,40,0.00,,,0.00,meteohub,2013-06-29 20:42:00,
2013-06-29 14:02:00,71.8,44.8,17.73,SSW,212,8.0,11.0,38,0.00,,,0.00,meteohub,2013-06-29 21:02:00,
2013-06-29 14:22:00,70.7,44.6,17.73,WSW,250,8.0,13.0,39,0.00,,,0.00,meteohub,2013-06-29 21:22:00,
2013-06-29 14:42:00,70.0,45.9,17.73,SW,219,9.0,11.0,42,0.00,,,0.00,meteohub,2013-06-29 21:42:00,
2013-06-29 15:02:00,70.2,46.6,17.73,South,186,9.0,11.0,43,0.00,,,0.00,meteohub,2013-06-29 22:02:00,
2013-06-29 15:42:00,75.4,43.5,17.73,SW,216,8.0,9.0,32,0.00,,,0.00,meteohub,2013-06-29 22:42:00,
2013-06-29 16:02:00,76.1,44.1,17.73,WSW,241,8.0,10.0,32,0.00,,,0.00,meteohub,2013-06-29 23:02:00,
2013-06-29 16:22:00,74.7,43.7,17.73,SSW,206,6.0,11.0,33,0.00,,,0.00,meteohub,2013-06-29 23:22:00,
2013-06-29 16:42:00,76.1,44.1,17.73,WSW,239,7.0,9.0,32,0.00,,,0.00,meteohub,2013-06-29 23:42:00,
2013-06-29 17:02:00,74.8,43.9,17.73,SW,216,6.0,9.0,33,0.00,,,0.00,meteohub,2013-06-30 00:02:00,
2013-06-29 17:22:00,75.0,43.9,22.01,SW,219,4.0,8.0,33,0.00,,,0.00,meteohub,2013-06-30 00:22:00,
2013-06-29 17:42:00,75.4,44.2,21.30,SW,235,5.0,8.0,33,0.00,,,0.00,meteohub,2013-06-30 00:42:00,
2013-06-29 18:02:00,75.4,44.2,21.77,WSW,243,3.0,8.0,33,0.00,,,0.00,meteohub,2013-06-30 01:02:00,
2013-06-29 18:22:00,77.5,45.3,23.22,South,182,3.0,4.0,32,0.00,,,0.00,meteohub,2013-06-30 01:22:00,
2013-06-29 18:42:00,77.2,45.0,23.22,SSW,205,4.0,5.0,32,0.00,,,0.00,meteohub,2013-06-30 01:42:00,
2013-06-29 20:22:00,70.0,46.4,21.80,SW,214,3.0,3.0,43,0.00,,,0.00,meteohub,2013-06-30 03:22:00,
2013-06-29 20:42:00,69.8,47.5,22.48,SW,228,3.0,4.0,45,0.00,,,0.00,meteohub,2013-06-30 03:42:00,
2013-06-29 21:02:00,69.4,47.8,20.83,WSW,249,0.0,0.0,46,0.00,,,0.00,meteohub,2013-06-30 04:02:00,
2013-06-29 21:22:00,69.3,47.7,17.73,SSW,197,0.0,0.0,46,0.00,,,0.00,meteohub,2013-06-30 04:22:00,
2013-06-29 21:42:00,69.1,47.5,17.73,SSW,207,0.0,4.0,46,0.00,,,0.00,meteohub,2013-06-30 04:42:00,
2013-06-29 22:02:00,68.7,47.7,17.73,SSW,213,0.0,5.0,47,0.00,,,0.00,meteohub,2013-06-30 05:02:00,
2013-06-29 22:22:00,68.4,48.4,17.73,SSW,207,4.0,6.0,49,0.00,,,0.00,meteohub,2013-06-30 05:22:00,
2013-06-29 22:42:00,68.2,49.3,17.73,South,173,4.0,9.0,51,0.00,,,0.00,meteohub,2013-06-30 05:42:00,
2013-06-29 23:02:00,68.0,50.2,17.73,South,176,7.0,9.0,53,0.00,,,0.00,meteohub,2013-06-30 06:02:00,
2013-06-29 23:22:00,68.2,50.9,17.73,SSE,162,4.0,8.0,54,0.00,,,0.00,meteohub,2013-06-30 06:22:00,
2013-06-29 23:42:00,68.0,51.3,17.73,South,184,4.0,8.0,55,0.00,,,0.00,meteohub,2013-06-30 06:42:00,